createdAt,value
2022-10-17T00:01:58.385Z,6.13
2022-10-17T00:07:00.229Z,6.05
2022-10-17T00:12:02.909Z,2.83
2022-10-17T00:17:05.143Z,6.28
2022-10-17T00:22:07.023Z,3.92
2022-10-17T00:27:08.845Z,3.78
2022-10-17T00:32:10.718Z,7.00
2022-10-17T00:37:12.627Z,2.33
2022-10-17T00:42:14.469Z,4.43
2022-10-17T00:47:21.133Z,9.20
2022-10-17T00:52:27.021Z,13.18
2022-10-17T00:57:31.902Z,4.53
2022-10-17T01:02:33.910Z,2.92
2022-10-17T01:07:37.387Z,7.50
2022-10-17T01:13:07.291Z,6.80
2022-10-17T01:18:32.635Z,10.60
2022-10-17T01:24:00.268Z,5.75
2022-10-17T01:29:10.923Z,4.82
2022-10-17T01:34:36.113Z,3.80
2022-10-17T01:39:52.089Z,7.18
2022-10-17T01:45:12.899Z,2.97
2022-10-17T01:50:24.469Z,3.30
2022-10-17T01:55:33.026Z,4.00
2022-10-17T02:00:37.884Z,5.43
2022-10-17T02:05:42.587Z,5.97
2022-10-17T02:10:50.685Z,6.78
2022-10-17T02:16:17.834Z,5.32
2022-10-17T02:21:48.631Z,5.47
2022-10-17T02:27:04.270Z,6.85
2022-10-17T02:32:11.825Z,6.22
2022-10-17T02:37:17.628Z,7.57
2022-10-17T02:42:21.820Z,6.57
2022-10-17T02:47:39.926Z,9.02
2022-10-17T02:53:10.936Z,9.73
2022-10-17T02:58:20.793Z,5.43
2022-10-17T03:03:26.916Z,6.57
2022-10-17T03:08:29.343Z,5.20
2022-10-17T03:13:33.009Z,9.35
2022-10-17T03:18:36.977Z,8.85
2022-10-17T03:23:39.642Z,5.47
2022-10-17T03:28:42.460Z,6.05
2022-10-17T03:33:44.396Z,6.38
2022-10-17T03:38:46.569Z,11.50
2022-10-17T03:43:48.525Z,10.32
2022-10-17T03:48:50.590Z,8.20
2022-10-17T03:53:52.654Z,16.85
2022-10-17T03:58:55.791Z,10.57
2022-10-17T04:03:58.106Z,12.93
2022-10-17T04:09:05.431Z,16.75
2022-10-17T04:14:17.476Z,17.20
2022-10-17T04:19:19.437Z,20.88
2022-10-17T04:24:22.662Z,23.98
2022-10-17T04:29:30.592Z,19.30
2022-10-17T04:34:52.658Z,21.35
2022-10-17T04:39:57.116Z,23.75
2022-10-17T04:44:59.246Z,24.83
2022-10-17T04:50:02.291Z,24.85
2022-10-17T04:55:07.442Z,34.20
2022-10-17T05:00:10.750Z,30.92
2022-10-17T05:05:26.864Z,34.10
2022-10-17T05:10:30.159Z,31.38
2022-10-17T05:15:33.771Z,29.42
2022-10-17T05:20:36.816Z,38.80
2022-10-17T05:25:38.802Z,29.15
2022-10-17T05:30:40.723Z,34.22
2022-10-17T05:35:44.063Z,27.15
2022-10-17T05:40:46.031Z,30.15
2022-10-17T05:45:47.947Z,31.67
2022-10-17T05:51:00.140Z,32.33
2022-10-17T05:56:04.341Z,26.63
2022-10-17T06:01:10.659Z,31.75
2022-10-17T06:06:15.898Z,33.55
2022-10-17T06:11:19.540Z,36.80
2022-10-17T06:16:21.658Z,31.05
2022-10-17T06:21:26.059Z,33.88
2022-10-17T06:26:35.070Z,31.35
2022-10-17T06:31:37.657Z,30.23
2022-10-17T06:36:40.234Z,33.22
2022-10-17T06:41:44.670Z,33.85
2022-10-17T06:46:46.769Z,32.20
2022-10-17T06:51:51.919Z,27.63
2022-10-17T06:56:58.238Z,32.58
2022-10-17T07:02:18.817Z,31.35
2022-10-17T07:07:20.856Z,35.72
2022-10-17T07:12:23.427Z,31.58
2022-10-17T07:17:25.459Z,34.80
2022-10-17T07:22:28.010Z,30.40
2022-10-17T07:27:33.088Z,33.80
2022-10-17T07:32:35.010Z,31.50
2022-10-17T07:37:38.605Z,26.98
2022-10-17T07:42:40.690Z,28.67
2022-10-17T07:47:43.124Z,44.75
2022-10-17T07:52:46.301Z,29.95
2022-10-17T07:57:48.074Z,26.42
2022-10-17T08:02:49.936Z,22.52
2022-10-17T08:07:51.864Z,25.90
2022-10-17T08:12:56.247Z,23.05
2022-10-17T08:17:58.747Z,21.27
2022-10-17T08:23:00.468Z,22.35
2022-10-17T08:28:02.276Z,17.52
2022-10-17T08:33:04.175Z,14.18
2022-10-17T08:38:09.957Z,16.58
2022-10-17T08:43:35.377Z,13.70
2022-10-17T08:48:45.614Z,15.27
2022-10-17T08:54:08.528Z,16.77
2022-10-17T08:59:17.057Z,17.33
2022-10-17T09:04:34.104Z,18.35
2022-10-17T09:10:01.939Z,17.77
2022-10-17T09:15:35.657Z,20.33
2022-10-17T09:20:45.051Z,18.38
2022-10-17T09:25:52.631Z,26.13
2022-10-17T09:31:25.077Z,22.88
2022-10-17T09:36:34.611Z,29.02
2022-10-17T09:41:46.116Z,25.13
2022-10-17T09:47:10.159Z,30.65
2022-10-17T09:52:28.877Z,29.77
2022-10-17T09:57:58.306Z,35.20
2022-10-17T10:03:27.347Z,29.55
2022-10-17T10:08:35.576Z,28.48
2022-10-17T10:13:37.457Z,34.25
2022-10-17T10:18:39.413Z,32.60
2022-10-17T10:23:43.982Z,27.83
2022-10-17T10:28:54.685Z,27.17
2022-10-17T10:33:57.727Z,33.38
2022-10-17T10:39:02.568Z,31.23
2022-10-17T10:44:06.612Z,26.15
2022-10-17T10:49:30.033Z,28.38
2022-10-17T10:54:41.653Z,23.13
2022-10-17T10:59:49.013Z,30.23
2022-10-17T11:05:34.842Z,33.28
2022-10-17T11:11:04.667Z,27.38
2022-10-17T11:16:15.312Z,26.05
2022-10-17T11:21:30.437Z,25.23
2022-10-17T11:26:38.614Z,25.70
2022-10-17T11:31:47.492Z,27.88
2022-10-17T11:36:53.602Z,21.50
2022-10-17T11:42:04.369Z,22.50
2022-10-17T11:47:45.685Z,22.73
2022-10-17T11:53:10.585Z,23.30
2022-10-17T11:58:30.902Z,21.92
2022-10-17T12:03:51.345Z,20.63
2022-10-17T12:09:26.636Z,27.45
2022-10-17T12:14:38.939Z,28.98
2022-10-17T12:19:40.767Z,23.55
2022-10-17T12:24:45.501Z,19.73
2022-10-17T12:29:48.449Z,22.10
2022-10-17T12:34:55.048Z,21.10
2022-10-17T12:39:56.872Z,20.55
2022-10-17T12:44:58.773Z,17.48
2022-10-17T12:50:00.572Z,20.48
2022-10-17T12:55:12.490Z,18.60
2022-10-17T13:00:23.378Z,19.77
2022-10-17T13:05:30.780Z,25.52
2022-10-17T13:10:39.651Z,22.63
2022-10-17T13:15:52.054Z,22.27
2022-10-17T13:21:07.659Z,23.77
2022-10-17T13:26:20.599Z,21.10
2022-10-17T13:31:35.368Z,23.73
2022-10-17T13:36:37.267Z,23.88
2022-10-17T13:41:40.593Z,22.38
2022-10-17T13:46:44.011Z,27.75
2022-10-17T13:51:48.787Z,26.45
2022-10-17T13:56:57.581Z,23.00
2022-10-17T14:02:01.946Z,23.30
2022-10-17T14:07:03.781Z,25.17
2022-10-17T14:12:16.627Z,23.80
2022-10-17T14:17:25.379Z,22.90
2022-10-17T14:22:29.043Z,25.10
2022-10-17T14:27:52.867Z,27.52
2022-10-17T14:33:01.377Z,25.50
2022-10-17T14:38:06.063Z,25.73
2022-10-17T14:43:20.864Z,30.23
2022-10-17T14:48:25.224Z,27.40
2022-10-17T14:53:28.522Z,30.63
2022-10-17T14:58:34.585Z,28.58
2022-10-17T15:03:36.466Z,30.67
2022-10-17T15:08:38.352Z,28.73
2022-10-17T15:13:45.389Z,35.67
2022-10-17T15:18:48.568Z,33.63
2022-10-17T15:23:50.963Z,31.48
2022-10-17T15:28:53.913Z,29.65
2022-10-17T15:33:55.824Z,27.95
2022-10-17T15:38:59.928Z,33.95
2022-10-17T15:44:01.760Z,29.02
2022-10-17T15:49:10.085Z,28.10
2022-10-17T15:59:18.020Z,29.92
2022-10-17T16:04:19.922Z,35.70
2022-10-17T16:09:21.837Z,37.05
2022-10-17T16:14:23.683Z,34.30
2022-10-17T16:19:30.138Z,36.25
2022-10-17T16:24:32.476Z,35.70
2022-10-17T16:29:34.368Z,42.15
2022-10-17T16:34:36.156Z,35.08
2022-10-17T16:39:37.963Z,36.15
2022-10-17T16:44:39.809Z,33.53
2022-10-17T16:49:44.450Z,37.80
2022-10-17T16:54:47.299Z,37.85
2022-10-17T16:59:49.103Z,41.35
2022-10-17T17:04:50.977Z,36.50
2022-10-17T17:09:56.309Z,37.67
2022-10-17T17:14:58.104Z,46.00
2022-10-17T17:19:59.976Z,168.65
2022-10-17T17:25:01.774Z,42.75
2022-10-17T17:30:03.771Z,61.88
2022-10-17T17:35:05.904Z,65.18
2022-10-17T17:40:08.493Z,75.78
2022-10-17T17:45:10.819Z,66.53
2022-10-17T17:50:12.764Z,44.53
2022-10-17T17:55:14.750Z,50.83
2022-10-17T18:00:16.803Z,44.20
2022-10-17T18:05:18.640Z,45.08
2022-10-17T18:10:20.577Z,40.17
2022-10-17T18:15:22.423Z,37.30
2022-10-17T18:20:24.597Z,36.40
2022-10-17T18:25:26.791Z,38.25
2022-10-17T18:30:31.029Z,36.33
2022-10-17T18:35:36.166Z,41.13
2022-10-17T18:40:38.061Z,37.65
2022-10-17T18:45:39.899Z,40.22
2022-10-17T18:50:41.962Z,32.05
2022-10-17T18:55:43.866Z,30.35
2022-10-17T19:00:46.369Z,36.72
2022-10-17T19:05:48.204Z,33.13
2022-10-17T19:10:50.882Z,34.97
2022-10-17T19:15:52.685Z,31.77
2022-10-17T19:20:54.722Z,27.20
2022-10-17T19:26:11.602Z,41.00
2022-10-17T19:31:16.987Z,26.25
2022-10-17T19:36:22.045Z,34.05
2022-10-17T19:41:24.444Z,28.35
2022-10-17T19:46:28.369Z,26.45
2022-10-17T19:51:31.050Z,30.75
2022-10-17T19:56:38.275Z,25.50
2022-10-17T20:01:40.716Z,25.75
2022-10-17T20:06:42.806Z,31.88
2022-10-17T20:11:44.847Z,34.28
2022-10-17T20:16:52.226Z,31.63
2022-10-17T20:21:54.401Z,27.13
2022-10-17T20:26:56.370Z,26.25
2022-10-17T20:31:58.640Z,25.27
2022-10-17T20:37:01.653Z,25.85
2022-10-17T20:42:03.782Z,29.13
2022-10-17T20:47:11.965Z,31.10
2022-10-17T20:52:18.211Z,28.70
2022-10-17T20:57:20.100Z,26.88
2022-10-17T21:02:21.885Z,24.27
2022-10-17T21:07:25.275Z,26.33
2022-10-17T21:12:36.830Z,22.45
2022-10-17T21:17:45.189Z,23.83
2022-10-17T21:22:46.984Z,23.45
2022-10-17T21:27:52.641Z,29.75
2022-10-17T21:32:55.856Z,29.88
2022-10-17T21:37:57.789Z,26.10
2022-10-17T21:42:59.582Z,22.08
2022-10-17T21:48:12.648Z,21.10
2022-10-17T21:53:14.829Z,21.58
2022-10-17T21:58:16.610Z,24.55
2022-10-17T22:03:18.425Z,24.98
2022-10-17T22:08:20.317Z,21.80
2022-10-17T22:13:22.107Z,25.33
2022-10-17T22:18:23.949Z,19.73
2022-10-17T22:23:26.082Z,18.88
2022-10-17T22:28:28.199Z,21.05
2022-10-17T22:33:32.890Z,21.77
2022-10-17T22:38:34.882Z,22.17
2022-10-17T22:43:36.737Z,19.60
2022-10-17T22:48:38.798Z,20.15
2022-10-17T22:53:40.618Z,17.80
2022-10-17T22:58:42.762Z,15.25
2022-10-17T23:03:45.148Z,14.65
2022-10-17T23:08:47.328Z,17.30
2022-10-17T23:13:49.163Z,14.15
2022-10-17T23:18:50.963Z,17.35
2022-10-17T23:23:52.839Z,11.32
2022-10-17T23:28:54.995Z,17.23
2022-10-17T23:33:56.832Z,15.13
2022-10-17T23:38:58.841Z,21.48
2022-10-17T23:44:00.652Z,11.70
2022-10-17T23:49:02.446Z,11.55
2022-10-17T23:54:04.858Z,12.82
2022-10-17T23:59:06.645Z,15.68
